sensor_id;sensor_type;location;lat;lon;timestamp;pressure;altitude;pressure_sealevel;temperature;humidity
17764;BME280;22245;52.832;13.816;2023-05-19T00:02:22;102639.75;;;10.37;59.10
17764;BME280;22245;52.832;13.816;2023-05-19T00:05:45;102634.75;;;10.31;59.10
17764;BME280;22245;52.832;13.816;2023-05-19T00:09:07;102634.16;;;10.25;59.66
17764;BME280;22245;52.832;13.816;2023-05-19T00:12:29;102637.13;;;10.19;59.20
17764;BME280;22245;52.832;13.816;2023-05-19T00:15:52;102645.53;;;10.11;59.48
17764;BME280;22245;52.832;13.816;2023-05-19T00:19:16;102642.25;;;10.06;59.75
17764;BME280;22245;52.832;13.816;2023-05-19T00:22:37;102640.81;;;9.99;59.91
17764;BME280;22245;52.832;13.816;2023-05-19T00:25:59;102639.19;;;9.96;59.83
17764;BME280;22245;52.832;13.816;2023-05-19T00:29:21;102636.59;;;9.95;60.08
17764;BME280;22245;52.832;13.816;2023-05-19T00:32:44;102628.09;;;9.88;60.46
17764;BME280;22245;52.832;13.816;2023-05-19T00:36:08;102632.78;;;9.83;60.44
17764;BME280;22245;52.832;13.816;2023-05-19T00:39:30;102636.63;;;9.77;60.43
17764;BME280;22245;52.832;13.816;2023-05-19T00:42:52;102630.75;;;9.70;60.66
17764;BME280;22245;52.832;13.816;2023-05-19T00:46:14;102630.06;;;9.67;61.05
17764;BME280;22245;52.832;13.816;2023-05-19T00:49:36;102626.59;;;9.65;61.13
17764;BME280;22245;52.832;13.816;2023-05-19T00:52:59;102626.69;;;9.63;61.25
17764;BME280;22245;52.832;13.816;2023-05-19T00:56:21;102624.09;;;9.62;61.23
17764;BME280;22245;52.832;13.816;2023-05-19T00:59:43;102637.25;;;9.65;61.20
17764;BME280;22245;52.832;13.816;2023-05-19T01:03:05;102637.19;;;9.66;61.12
17764;BME280;22245;52.832;13.816;2023-05-19T01:06:32;102642.34;;;9.69;60.83
17764;BME280;22245;52.832;13.816;2023-05-19T01:09:56;102644.16;;;9.69;60.95
17764;BME280;22245;52.832;13.816;2023-05-19T01:13:18;102642.44;;;9.68;61.25
17764;BME280;22245;52.832;13.816;2023-05-19T01:16:46;102641.56;;;9.67;61.47
17764;BME280;22245;52.832;13.816;2023-05-19T01:20:15;102629.13;;;9.68;61.17
17764;BME280;22245;52.832;13.816;2023-05-19T01:23:48;102630.97;;;9.66;61.44
17764;BME280;22245;52.832;13.816;2023-05-19T01:27:25;102629.13;;;9.68;61.41
17764;BME280;22245;52.832;13.816;2023-05-19T01:30:55;102635.31;;;9.68;61.52
17764;BME280;22245;52.832;13.816;2023-05-19T01:34:19;102635.16;;;9.72;61.57
17764;BME280;22245;52.832;13.816;2023-05-19T01:37:45;102642.28;;;9.71;61.65
17764;BME280;22245;52.832;13.816;2023-05-19T01:41:07;102644.06;;;9.70;61.72
17764;BME280;22245;52.832;13.816;2023-05-19T01:44:30;102648.59;;;9.68;61.54
17764;BME280;22245;52.832;13.816;2023-05-19T01:47:57;102644.22;;;9.67;61.81
17764;BME280;22245;52.832;13.816;2023-05-19T01:51:20;102639.78;;;9.68;61.79
17764;BME280;22245;52.832;13.816;2023-05-19T01:54:42;102647.66;;;9.69;61.93
17764;BME280;22245;52.832;13.816;2023-05-19T01:58:08;102646.88;;;9.67;61.83
17764;BME280;22245;52.832;13.816;2023-05-19T02:01:36;102645.16;;;9.66;62.23
17764;BME280;22245;52.832;13.816;2023-05-19T02:05:08;102643.59;;;9.62;62.47
17764;BME280;22245;52.832;13.816;2023-05-19T02:08:40;102646.25;;;9.62;62.32
17764;BME280;22245;52.832;13.816;2023-05-19T02:12:08;102638.28;;;9.62;62.70
17764;BME280;22245;52.832;13.816;2023-05-19T02:15:34;102637.25;;;9.65;62.76
17764;BME280;22245;52.832;13.816;2023-05-19T02:18:58;102634.59;;;9.65;62.74
17764;BME280;22245;52.832;13.816;2023-05-19T02:22:21;102631.09;;;9.64;62.72
17764;BME280;22245;52.832;13.816;2023-05-19T02:25:43;102624.81;;;9.65;62.79
17764;BME280;22245;52.832;13.816;2023-05-19T02:29:05;102631.69;;;9.69;62.79
17764;BME280;22245;52.832;13.816;2023-05-19T02:32:27;102630.75;;;9.70;62.59
17764;BME280;22245;52.832;13.816;2023-05-19T02:35:49;102629.81;;;9.72;63.02
17764;BME280;22245;52.832;13.816;2023-05-19T02:39:12;102633.41;;;9.70;62.97
17764;BME280;22245;52.832;13.816;2023-05-19T02:42:33;102625.38;;;9.72;62.84
17764;BME280;22245;52.832;13.816;2023-05-19T02:45:56;102624.50;;;9.72;62.55
17764;BME280;22245;52.832;13.816;2023-05-19T02:49:19;102622.00;;;9.68;63.21
17764;BME280;22245;52.832;13.816;2023-05-19T02:52:40;102619.44;;;9.67;63.34
17764;BME280;22245;52.832;13.816;2023-05-19T02:56:04;102620.44;;;9.64;63.21
17764;BME280;22245;52.832;13.816;2023-05-19T02:59:26;102617.06;;;9.61;63.29
17764;BME280;22245;52.832;13.816;2023-05-19T03:02:48;102613.78;;;9.55;64.03
17764;BME280;22245;52.832;13.816;2023-05-19T03:06:12;102621.22;;;9.49;64.37
17764;BME280;22245;52.832;13.816;2023-05-19T03:09:35;102618.00;;;9.42;64.46
17764;BME280;22245;52.832;13.816;2023-05-19T03:12:57;102621.91;;;9.35;64.71
17764;BME280;22245;52.832;13.816;2023-05-19T03:16:19;102618.63;;;9.30;64.77
17764;BME280;22245;52.832;13.816;2023-05-19T03:19:41;102610.78;;;9.26;65.15
17764;BME280;22245;52.832;13.816;2023-05-19T03:23:03;102618.06;;;9.23;65.44
17764;BME280;22245;52.832;13.816;2023-05-19T03:26:25;102629.63;;;9.22;65.40
17764;BME280;22245;52.832;13.816;2023-05-19T03:29:50;102637.53;;;9.23;65.47
17764;BME280;22245;52.832;13.816;2023-05-19T03:33:13;102627.75;;;9.24;65.57
17764;BME280;22245;52.832;13.816;2023-05-19T03:36:36;102622.44;;;9.24;65.90
17764;BME280;22245;52.832;13.816;2023-05-19T03:40:04;102638.25;;;9.27;65.78
17764;BME280;22245;52.832;13.816;2023-05-19T03:43:28;102632.94;;;9.27;65.64
17764;BME280;22245;52.832;13.816;2023-05-19T03:46:56;102638.41;;;9.24;65.79
17764;BME280;22245;52.832;13.816;2023-05-19T03:50:24;102635.91;;;9.21;66.41
17764;BME280;22245;52.832;13.816;2023-05-19T03:53:53;102644.03;;;9.18;66.73
17764;BME280;22245;52.832;13.816;2023-05-19T03:57:15;102646.69;;;9.18;66.85
17764;BME280;22245;52.832;13.816;2023-05-19T04:00:37;102638.72;;;9.18;66.65
17764;BME280;22245;52.832;13.816;2023-05-19T04:04:00;102637.78;;;9.19;66.65
17764;BME280;22245;52.832;13.816;2023-05-19T04:07:22;102641.28;;;9.19;67.02
17764;BME280;22245;52.832;13.816;2023-05-19T04:10:44;102633.25;;;9.21;66.97
17764;BME280;22245;52.832;13.816;2023-05-19T04:14:06;102633.16;;;9.22;66.91
17764;BME280;22245;52.832;13.816;2023-05-19T04:17:29;102643.56;;;9.27;67.06
17764;BME280;22245;52.832;13.816;2023-05-19T04:20:52;102639.97;;;9.28;67.18
17764;BME280;22245;52.832;13.816;2023-05-19T04:24:13;102637.31;;;9.28;67.18
17764;BME280;22245;52.832;13.816;2023-05-19T04:27:35;102631.13;;;9.27;67.26
17764;BME280;22245;52.832;13.816;2023-05-19T04:30:59;102637.16;;;9.31;67.18
17764;BME280;22245;52.832;13.816;2023-05-19T04:34:21;102634.50;;;9.31;66.97
17764;BME280;22245;52.832;13.816;2023-05-19T04:37:44;102643.09;;;9.36;66.95
17764;BME280;22245;52.832;13.816;2023-05-19T04:41:10;102635.91;;;9.38;66.96
17764;BME280;22245;52.832;13.816;2023-05-19T04:44:33;102644.50;;;9.44;66.99
17764;BME280;22245;52.832;13.816;2023-05-19T04:47:55;102637.47;;;9.43;67.32
17764;BME280;22245;52.832;13.816;2023-05-19T04:51:17;102638.13;;;9.48;67.16
17764;BME280;22245;52.832;13.816;2023-05-19T04:54:41;102634.38;;;9.52;67.32
17764;BME280;22245;52.832;13.816;2023-05-19T04:58:05;102640.47;;;9.54;67.83
17764;BME280;22245;52.832;13.816;2023-05-19T05:01:27;102633.19;;;9.58;67.96
17764;BME280;22245;52.832;13.816;2023-05-19T05:04:50;102642.66;;;9.63;67.69
17764;BME280;22245;52.832;13.816;2023-05-19T05:08:13;102638.97;;;9.66;67.67
17764;BME280;22245;52.832;13.816;2023-05-19T05:11:44;102636.88;;;9.73;67.47
17764;BME280;22245;52.832;13.816;2023-05-19T05:15:07;102633.88;;;9.79;67.26
17764;BME280;22245;52.832;13.816;2023-05-19T05:18:30;102640.63;;;9.86;67.30
17764;BME280;22245;52.832;13.816;2023-05-19T05:21:52;102629.56;;;9.94;67.25
17764;BME280;22245;52.832;13.816;2023-05-19T05:25:15;102638.81;;;10.04;67.24
17764;BME280;22245;52.832;13.816;2023-05-19T05:28:40;102633.78;;;10.16;66.27
17764;BME280;22245;52.832;13.816;2023-05-19T05:32:01;102644.88;;;10.24;66.72
17764;BME280;22245;52.832;13.816;2023-05-19T05:35:23;102639.91;;;10.34;66.46
17764;BME280;22245;52.832;13.816;2023-05-19T05:38:45;102636.78;;;10.43;65.27
17764;BME280;22245;52.832;13.816;2023-05-19T05:42:07;102634.38;;;10.54;64.53
17764;BME280;22245;52.832;13.816;2023-05-19T05:45:32;102634.66;;;10.66;63.67
17764;BME280;22245;52.832;13.816;2023-05-19T05:48:55;102629.66;;;10.76;62.79
17764;BME280;22245;52.832;13.816;2023-05-19T05:52:17;102628.13;;;10.88;63.12
17764;BME280;22245;52.832;13.816;2023-05-19T05:55:42;102628.53;;;10.96;62.38
17764;BME280;22245;52.832;13.816;2023-05-19T05:59:04;102632.41;;;11.06;62.01
17764;BME280;22245;52.832;13.816;2023-05-19T06:02:27;102631.88;;;11.15;61.78
17764;BME280;22245;52.832;13.816;2023-05-19T06:05:50;102634.91;;;11.25;61.78
17764;BME280;22245;52.832;13.816;2023-05-19T06:09:12;102635.31;;;11.34;60.21
17764;BME280;22245;52.832;13.816;2023-05-19T06:12:36;102637.53;;;11.41;60.64
17764;BME280;22245;52.832;13.816;2023-05-19T06:16:00;102628.09;;;11.50;60.54
17764;BME280;22245;52.832;13.816;2023-05-19T06:19:27;102634.81;;;11.57;60.23
17764;BME280;22245;52.832;13.816;2023-05-19T06:22:48;102630.25;;;11.60;60.39
17764;BME280;22245;52.832;13.816;2023-05-19T06:26:13;102632.44;;;11.67;59.83
17764;BME280;22245;52.832;13.816;2023-05-19T06:29:34;102636.28;;;11.78;58.92
17764;BME280;22245;52.832;13.816;2023-05-19T06:32:59;102634.97;;;11.85;60.07
17764;BME280;22245;52.832;13.816;2023-05-19T06:36:22;102640.69;;;11.93;60.11
17764;BME280;22245;52.832;13.816;2023-05-19T06:39:47;102641.13;;;12.01;58.70
17764;BME280;22245;52.832;13.816;2023-05-19T06:43:11;102638.81;;;12.10;58.59
17764;BME280;22245;52.832;13.816;2023-05-19T06:46:51;102634.72;;;12.19;58.74
17764;BME280;22245;52.832;13.816;2023-05-19T06:50:13;102644.94;;;12.26;59.28
17764;BME280;22245;52.832;13.816;2023-05-19T06:53:37;102643.53;;;12.35;58.85
17764;BME280;22245;52.832;13.816;2023-05-19T06:57:01;102642.94;;;12.44;59.37
17764;BME280;22245;52.832;13.816;2023-05-19T07:00:23;102637.28;;;12.49;58.91
17764;BME280;22245;52.832;13.816;2023-05-19T07:03:46;102637.69;;;12.57;59.30
17764;BME280;22245;52.832;13.816;2023-05-19T07:07:08;102629.34;;;12.62;58.90
17764;BME280;22245;52.832;13.816;2023-05-19T07:10:31;102637.78;;;12.70;58.89
17764;BME280;22245;52.832;13.816;2023-05-19T07:13:55;102632.88;;;12.77;58.71
17764;BME280;22245;52.832;13.816;2023-05-19T07:17:20;102633.22;;;12.85;59.40
17764;BME280;22245;52.832;13.816;2023-05-19T07:20:42;102628.25;;;12.94;58.80
17764;BME280;22245;52.832;13.816;2023-05-19T07:24:04;102626.78;;;13.02;58.87
17764;BME280;22245;52.832;13.816;2023-05-19T07:27:28;102635.94;;;13.13;59.18
17764;BME280;22245;52.832;13.816;2023-05-19T07:30:50;102630.91;;;13.21;58.34
17764;BME280;22245;52.832;13.816;2023-05-19T07:34:12;102628.50;;;13.31;58.13
17764;BME280;22245;52.832;13.816;2023-05-19T07:37:33;102629.03;;;13.36;56.84
17764;BME280;22245;52.832;13.816;2023-05-19T07:40:55;102627.47;;;13.46;56.78
17764;BME280;22245;52.832;13.816;2023-05-19T07:44:18;102625.88;;;13.57;56.29
17764;BME280;22245;52.832;13.816;2023-05-19T07:47:40;102624.41;;;13.66;56.36
17764;BME280;22245;52.832;13.816;2023-05-19T07:51:02;102617.56;;;13.74;55.92
17764;BME280;22245;52.832;13.816;2023-05-19T07:54:24;102616.84;;;13.85;55.42
17764;BME280;22245;52.832;13.816;2023-05-19T07:57:46;102611.69;;;13.95;55.60
17764;BME280;22245;52.832;13.816;2023-05-19T08:01:10;102610.94;;;14.06;55.10
17764;BME280;22245;52.832;13.816;2023-05-19T08:04:32;102606.63;;;14.16;54.90
17764;BME280;22245;52.832;13.816;2023-05-19T08:07:53;102610.16;;;14.30;53.79
17764;BME280;22245;52.832;13.816;2023-05-19T08:11:15;102609.59;;;14.38;54.39
17764;BME280;22245;52.832;13.816;2023-05-19T08:14:37;102611.72;;;14.45;53.96
17764;BME280;22245;52.832;13.816;2023-05-19T08:18:00;102607.31;;;14.57;53.38
17764;BME280;22245;52.832;13.816;2023-05-19T08:21:22;102609.09;;;14.70;54.58
17764;BME280;22245;52.832;13.816;2023-05-19T08:24:43;102611.88;;;14.81;53.56
17764;BME280;22245;52.832;13.816;2023-05-19T08:28:05;102601.09;;;14.94;52.51
17764;BME280;22245;52.832;13.816;2023-05-19T08:31:26;102605.56;;;15.07;52.51
17764;BME280;22245;52.832;13.816;2023-05-19T08:34:50;102601.53;;;15.12;51.96
17764;BME280;22245;52.832;13.816;2023-05-19T08:38:11;102610.38;;;15.26;52.17
17764;BME280;22245;52.832;13.816;2023-05-19T08:41:33;102609.69;;;15.35;51.52
17764;BME280;22245;52.832;13.816;2023-05-19T08:44:55;102614.09;;;15.47;51.26
17764;BME280;22245;52.832;13.816;2023-05-19T08:48:17;102606.94;;;15.59;51.36
17764;BME280;22245;52.832;13.816;2023-05-19T08:51:46;102609.66;;;15.71;51.08
17764;BME280;22245;52.832;13.816;2023-05-19T08:55:17;102605.28;;;15.81;49.48
17764;BME280;22245;52.832;13.816;2023-05-19T08:58:45;102594.72;;;15.91;48.98
17764;BME280;22245;52.832;13.816;2023-05-19T09:02:11;102603.63;;;16.03;48.60
17764;BME280;22245;52.832;13.816;2023-05-19T09:05:34;102594.94;;;16.11;47.90
17764;BME280;22245;52.832;13.816;2023-05-19T09:08:57;102586.28;;;16.18;47.24
17764;BME280;22245;52.832;13.816;2023-05-19T09:12:19;102587.59;;;16.24;47.01
17764;BME280;22245;52.832;13.816;2023-05-19T09:15:41;102584.31;;;16.32;47.50
17764;BME280;22245;52.832;13.816;2023-05-19T09:19:05;102582.81;;;16.39;47.09
17764;BME280;22245;52.832;13.816;2023-05-19T09:22:39;102581.22;;;16.48;48.23
17764;BME280;22245;52.832;13.816;2023-05-19T09:26:04;102577.66;;;16.59;48.15
17764;BME280;22245;52.832;13.816;2023-05-19T09:29:27;102564.06;;;16.72;47.50
17764;BME280;22245;52.832;13.816;2023-05-19T09:32:50;102567.56;;;16.84;47.43
17764;BME280;22245;52.832;13.816;2023-05-19T09:36:12;102563.00;;;16.96;48.20
17764;BME280;22245;52.832;13.816;2023-05-19T09:39:34;102554.78;;;17.09;45.52
17764;BME280;22245;52.832;13.816;2023-05-19T09:42:58;102554.97;;;17.17;45.47
17764;BME280;22245;52.832;13.816;2023-05-19T09:46:23;102554.06;;;17.28;44.98
17764;BME280;22245;52.832;13.816;2023-05-19T09:49:47;102555.97;;;17.37;44.28
17764;BME280;22245;52.832;13.816;2023-05-19T09:53:11;102557.41;;;17.41;44.59
17764;BME280;22245;52.832;13.816;2023-05-19T09:56:34;102539.88;;;17.47;44.78
17764;BME280;22245;52.832;13.816;2023-05-19T09:59:57;102539.34;;;17.53;44.13
17764;BME280;22245;52.832;13.816;2023-05-19T10:03:24;102540.38;;;17.62;43.60
17764;BME280;22245;52.832;13.816;2023-05-19T10:06:46;102534.59;;;17.67;44.66
17764;BME280;22245;52.832;13.816;2023-05-19T10:10:14;102526.69;;;17.75;44.15
17764;BME280;22245;52.832;13.816;2023-05-19T10:13:37;102537.59;;;17.73;43.55
17764;BME280;22245;52.832;13.816;2023-05-19T10:17:01;102528.88;;;17.60;42.74
17764;BME280;22245;52.832;13.816;2023-05-19T10:20:23;102510.19;;;17.68;44.38
17764;BME280;22245;52.832;13.816;2023-05-19T10:23:46;102520.88;;;17.79;44.91
17764;BME280;22245;52.832;13.816;2023-05-19T10:27:10;102535.53;;;17.87;44.41
17764;BME280;22245;52.832;13.816;2023-05-19T10:30:36;102531.31;;;17.94;42.18
17764;BME280;22245;52.832;13.816;2023-05-19T10:34:12;102520.97;;;17.99;42.15
17764;BME280;22245;52.832;13.816;2023-05-19T10:37:45;102522.03;;;18.08;42.61
17764;BME280;22245;52.832;13.816;2023-05-19T10:41:10;102524.34;;;18.22;42.75
17764;BME280;22245;52.832;13.816;2023-05-19T10:44:39;102522.66;;;18.31;42.12
17764;BME280;22245;52.832;13.816;2023-05-19T10:48:09;102531.19;;;18.36;41.80
17764;BME280;22245;52.832;13.816;2023-05-19T10:51:33;102515.81;;;18.37;39.90
17764;BME280;22245;52.832;13.816;2023-05-19T10:54:55;102516.41;;;18.41;40.35
17764;BME280;22245;52.832;13.816;2023-05-19T10:58:38;102524.66;;;18.39;39.49
17764;BME280;22245;52.832;13.816;2023-05-19T11:02:02;102520.25;;;18.38;39.44
17764;BME280;22245;52.832;13.816;2023-05-19T11:05:28;102511.16;;;18.29;39.76
17764;BME280;22245;52.832;13.816;2023-05-19T11:09:10;102513.13;;;18.27;40.45
17764;BME280;22245;52.832;13.816;2023-05-19T11:12:39;102499.94;;;18.34;39.96
17764;BME280;22245;52.832;13.816;2023-05-19T11:16:06;102502.81;;;18.42;40.13
17764;BME280;22245;52.832;13.816;2023-05-19T11:19:29;102496.13;;;18.46;39.70
17764;BME280;22245;52.832;13.816;2023-05-19T11:23:04;102501.78;;;18.53;39.59
17764;BME280;22245;52.832;13.816;2023-05-19T11:26:40;102491.28;;;18.50;39.71
17764;BME280;22245;52.832;13.816;2023-05-19T11:30:08;102489.47;;;18.50;39.22
17764;BME280;22245;52.832;13.816;2023-05-19T11:33:34;102492.44;;;18.57;39.19
17764;BME280;22245;52.832;13.816;2023-05-19T11:36:56;102485.19;;;18.58;39.42
17764;BME280;22245;52.832;13.816;2023-05-19T11:40:20;102491.88;;;18.63;39.93
17764;BME280;22245;52.832;13.816;2023-05-19T11:43:46;102480.94;;;18.65;39.41
17764;BME280;22245;52.832;13.816;2023-05-19T11:47:08;102490.31;;;18.71;39.04
17764;BME280;22245;52.832;13.816;2023-05-19T11:50:30;102483.91;;;18.72;39.25
17764;BME280;22245;52.832;13.816;2023-05-19T11:53:53;102496.13;;;18.76;39.68
17764;BME280;22245;52.832;13.816;2023-05-19T11:57:14;102492.72;;;18.74;39.92
17764;BME280;22245;52.832;13.816;2023-05-19T12:00:39;102488.91;;;18.76;40.22
17764;BME280;22245;52.832;13.816;2023-05-19T12:04:01;102485.47;;;18.84;40.07
17764;BME280;22245;52.832;13.816;2023-05-19T12:07:23;102485.06;;;18.89;38.43
17764;BME280;22245;52.832;13.816;2023-05-19T12:10:47;102476.66;;;18.92;37.93
17764;BME280;22245;52.832;13.816;2023-05-19T12:14:11;102484.47;;;18.95;38.37
17764;BME280;22245;52.832;13.816;2023-05-19T12:17:34;102480.94;;;18.94;38.55
17764;BME280;22245;52.832;13.816;2023-05-19T12:20:56;102473.66;;;18.95;38.57
17764;BME280;22245;52.832;13.816;2023-05-19T12:24:18;102471.97;;;18.94;38.45
17764;BME280;22245;52.832;13.816;2023-05-19T12:27:42;102471.09;;;18.93;38.85
17764;BME280;22245;52.832;13.816;2023-05-19T12:31:04;102473.97;;;18.92;38.21
17764;BME280;22245;52.832;13.816;2023-05-19T12:34:28;102465.00;;;18.91;38.31
17764;BME280;22245;52.832;13.816;2023-05-19T12:37:50;102468.69;;;18.90;38.52
17764;BME280;22245;52.832;13.816;2023-05-19T12:41:12;102461.88;;;18.96;38.54
17764;BME280;22245;52.832;13.816;2023-05-19T12:44:36;102460.50;;;19.02;38.18
17764;BME280;22245;52.832;13.816;2023-05-19T12:47:57;102460.75;;;19.08;38.37
17764;BME280;22245;52.832;13.816;2023-05-19T12:51:20;102461.00;;;19.15;38.81
17764;BME280;22245;52.832;13.816;2023-05-19T12:54:42;102461.88;;;19.16;38.62
17764;BME280;22245;52.832;13.816;2023-05-19T12:58:05;102453.47;;;19.19;38.45
17764;BME280;22245;52.832;13.816;2023-05-19T13:01:28;102454.31;;;19.19;38.70
17764;BME280;22245;52.832;13.816;2023-05-19T13:04:51;102464.00;;;19.22;38.30
17764;BME280;22245;52.832;13.816;2023-05-19T13:08:16;102463.13;;;19.21;37.50
17764;BME280;22245;52.832;13.816;2023-05-19T13:11:38;102460.44;;;19.21;37.39
17764;BME280;22245;52.832;13.816;2023-05-19T13:15:03;102461.13;;;19.23;37.56
17764;BME280;22245;52.832;13.816;2023-05-19T13:18:26;102458.84;;;19.29;38.09
17764;BME280;22245;52.832;13.816;2023-05-19T13:21:51;102452.44;;;19.30;38.56
17764;BME280;22245;52.832;13.816;2023-05-19T13:25:15;102461.97;;;19.34;38.37
17764;BME280;22245;52.832;13.816;2023-05-19T13:28:37;102458.09;;;19.36;38.21
17764;BME280;22245;52.832;13.816;2023-05-19T13:31:59;102451.72;;;19.37;37.66
17764;BME280;22245;52.832;13.816;2023-05-19T13:35:20;102446.00;;;19.41;37.90
17764;BME280;22245;52.832;13.816;2023-05-19T13:38:42;102444.16;;;19.41;36.93
17764;BME280;22245;52.832;13.816;2023-05-19T13:42:07;102445.00;;;19.42;37.59
17764;BME280;22245;52.832;13.816;2023-05-19T13:45:29;102437.16;;;19.48;38.08
17764;BME280;22245;52.832;13.816;2023-05-19T13:48:51;102433.16;;;19.52;36.91
17764;BME280;22245;52.832;13.816;2023-05-19T13:52:13;102437.25;;;19.57;37.58
17764;BME280;22245;52.832;13.816;2023-05-19T13:55:34;102450.66;;;19.58;37.37
17764;BME280;22245;52.832;13.816;2023-05-19T13:58:58;102458.59;;;19.60;37.65
17764;BME280;22245;52.832;13.816;2023-05-19T14:02:19;102456.78;;;19.50;37.01
17764;BME280;22245;52.832;13.816;2023-05-19T14:05:41;102455.97;;;19.40;37.06
17764;BME280;22245;52.832;13.816;2023-05-19T14:09:03;102445.47;;;19.37;37.67
17764;BME280;22245;52.832;13.816;2023-05-19T14:12:26;102449.88;;;19.38;37.44
17764;BME280;22245;52.832;13.816;2023-05-19T14:16:08;102453.09;;;19.42;37.58
17764;BME280;22245;52.832;13.816;2023-05-19T14:19:30;102458.97;;;19.37;37.19
17764;BME280;22245;52.832;13.816;2023-05-19T14:22:52;102451.72;;;19.28;37.49
17764;BME280;22245;52.832;13.816;2023-05-19T14:26:14;102458.84;;;19.29;37.91
17764;BME280;22245;52.832;13.816;2023-05-19T14:29:36;102457.13;;;19.28;37.30
17764;BME280;22245;52.832;13.816;2023-05-19T14:33:00;102450.19;;;19.25;37.44
17764;BME280;22245;52.832;13.816;2023-05-19T14:36:22;102456.72;;;19.22;37.87
17764;BME280;22245;52.832;13.816;2023-05-19T14:39:44;102469.53;;;19.20;37.92
17764;BME280;22245;52.832;13.816;2023-05-19T14:43:06;102466.00;;;19.20;37.63
17764;BME280;22245;52.832;13.816;2023-05-19T14:46:28;102464.13;;;19.11;38.06
17764;BME280;22245;52.832;13.816;2023-05-19T14:49:51;102460.59;;;19.10;38.31
17764;BME280;22245;52.832;13.816;2023-05-19T14:53:13;102465.00;;;19.11;38.06
17764;BME280;22245;52.832;13.816;2023-05-19T14:56:34;102465.72;;;19.13;38.18
17764;BME280;22245;52.832;13.816;2023-05-19T14:59:56;102455.78;;;19.14;38.21
17764;BME280;22245;52.832;13.816;2023-05-19T15:03:17;102470.69;;;19.08;38.08
17764;BME280;22245;52.832;13.816;2023-05-19T15:06:41;102463.91;;;19.04;38.37
17764;BME280;22245;52.832;13.816;2023-05-19T15:10:06;102465.31;;;18.98;38.11
17764;BME280;22245;52.832;13.816;2023-05-19T15:13:29;102461.16;;;18.94;38.48
17764;BME280;22245;52.832;13.816;2023-05-19T15:16:50;102465.88;;;19.02;38.98
17764;BME280;22245;52.832;13.816;2023-05-19T15:20:12;102462.44;;;19.09;38.38
17764;BME280;22245;52.832;13.816;2023-05-19T15:23:35;102460.13;;;19.24;38.89
17764;BME280;22245;52.832;13.816;2023-05-19T15:26:56;102461.22;;;19.42;39.54
17764;BME280;22245;52.832;13.816;2023-05-19T15:30:19;102462.88;;;19.52;38.37
17764;BME280;22245;52.832;13.816;2023-05-19T15:33:41;102464.00;;;19.60;39.23
17764;BME280;22245;52.832;13.816;2023-05-19T15:37:03;102459.69;;;19.67;39.15
17764;BME280;22245;52.832;13.816;2023-05-19T15:40:26;102451.19;;;19.62;39.43
17764;BME280;22245;52.832;13.816;2023-05-19T15:43:48;102450.50;;;19.88;38.36
17764;BME280;22245;52.832;13.816;2023-05-19T15:47:10;102445.09;;;20.16;38.08
17764;BME280;22245;52.832;13.816;2023-05-19T15:50:32;102441.00;;;20.48;37.52
17764;BME280;22245;52.832;13.816;2023-05-19T15:53:55;102435.72;;;20.64;36.81
17764;BME280;22245;52.832;13.816;2023-05-19T15:57:17;102439.34;;;20.91;36.22
17764;BME280;22245;52.832;13.816;2023-05-19T16:00:39;102437.78;;;21.15;36.08
17764;BME280;22245;52.832;13.816;2023-05-19T16:04:01;102438.63;;;21.42;36.03
17764;BME280;22245;52.832;13.816;2023-05-19T16:07:23;102426.72;;;21.69;35.78
17764;BME280;22245;52.832;13.816;2023-05-19T16:10:44;102433.34;;;21.67;35.03
17764;BME280;22245;52.832;13.816;2023-05-19T16:14:08;102432.22;;;21.51;35.99
17764;BME280;22245;52.832;13.816;2023-05-19T16:17:29;102430.09;;;21.29;36.00
17764;BME280;22245;52.832;13.816;2023-05-19T16:20:51;102417.22;;;21.31;36.64
17764;BME280;22245;52.832;13.816;2023-05-19T16:24:13;102418.41;;;21.36;35.82
17764;BME280;22245;52.832;13.816;2023-05-19T16:27:35;102419.31;;;21.45;35.80
17764;BME280;22245;52.832;13.816;2023-05-19T16:30:58;102417.66;;;21.52;34.91
17764;BME280;22245;52.832;13.816;2023-05-19T16:34:20;102423.59;;;21.56;34.30
17764;BME280;22245;52.832;13.816;2023-05-19T16:37:41;102421.38;;;21.51;34.40
17764;BME280;22245;52.832;13.816;2023-05-19T16:41:05;102425.63;;;21.54;34.06
17764;BME280;22245;52.832;13.816;2023-05-19T16:44:26;102423.41;;;21.58;34.14
17764;BME280;22245;52.832;13.816;2023-05-19T16:47:49;102416.88;;;21.68;33.75
17764;BME280;22245;52.832;13.816;2023-05-19T16:51:11;102415.22;;;21.76;33.54
17764;BME280;22245;52.832;13.816;2023-05-19T16:54:33;102421.53;;;21.85;33.20
17764;BME280;22245;52.832;13.816;2023-05-19T16:57:55;102412.72;;;21.91;32.92
17764;BME280;22245;52.832;13.816;2023-05-19T17:01:17;102418.50;;;21.96;33.08
17764;BME280;22245;52.832;13.816;2023-05-19T17:04:40;102420.53;;;21.94;33.43
17764;BME280;22245;52.832;13.816;2023-05-19T17:08:02;102418.31;;;21.89;33.70
17764;BME280;22245;52.832;13.816;2023-05-19T17:11:24;102423.22;;;21.86;33.73
17764;BME280;22245;52.832;13.816;2023-05-19T17:14:46;102412.03;;;21.80;33.67
17764;BME280;22245;52.832;13.816;2023-05-19T17:18:10;102423.88;;;21.71;34.17
17764;BME280;22245;52.832;13.816;2023-05-19T17:21:34;102424.75;;;21.53;33.80
17764;BME280;22245;52.832;13.816;2023-05-19T17:24:55;102424.84;;;21.35;34.26
17764;BME280;22245;52.832;13.816;2023-05-19T17:28:17;102422.91;;;21.19;34.55
17764;BME280;22245;52.832;13.816;2023-05-19T17:31:40;102420.97;;;21.03;34.52
17764;BME280;22245;52.832;13.816;2023-05-19T17:35:01;102427.97;;;20.88;34.78